Mountain House, CA (95391)

10:46 AM PDT on September 02, 2015 (GMT -0700)
MacArthur/Schulte | | Change Station
CLOSE
Current Station
Personal Weather Station
Location: Tracy, CA
Elevation: 105 ft
Nearby Weather Stations

Elev 105 ft 37.73 °N, 121.42 °W | Updated 10 seconds ago

Clear
Clear
74.6 °F
Feels Like 77 °F
N
0.0
Wind Variable Wind from WNW
Gusts 11.0 mph

Today
High -- | Low -- °F
--% Chance of Precip.
Yesterday
High -- | Low -- °F
Precip. -- in
6:36 AM 7:33 PM
Waning Gibbous, 78% visible
Pressure 29.91 in
Visibility 10.0 miles
Clouds Clear
Heat Index 77 °F
Dew Point 55 °F
Humidity 50%
Rainfall 0.00 in
Snow Depth Not available.
UV 5 out of 12
Pollen 7.10 out of 12
Air Quality Not available.
Flu Activity Not available.
METAR KSCK 021655Z 29012KT 10SM CLR 23/13 A2991 RMK AO2 SLP126 T02280128
Pressure 29.91 in
Visibility 10.0 miles
Clouds Clear
Heat Index 77 °F
Dew Point 55 °F
Humidity 50%
Rainfall 0.00 in
Snow Depth Not available.
UV 5 out of 12
Pollen 7.10 out of 12
Air Quality Not available.
Flu Activity Not available.
METAR KSCK 021655Z 29012KT 10SM CLR 23/13 A2991 RMK AO2 SLP126 T02280128

10-Day Weather Forecast

×

Almanac

Astronomy

Sep. 02, 2015 Rise Set
Actual Time
Civil Twilight
Nautical Twilight
Astronomical Twilight
Moon
Length of Visible Light
Length of Day
Tomorrow will be .
, % of the Moon is Illuminated

Today's Extremes

State Highs State Lows

Community

WunderPhotos

Upload Photos

1,851,789 photos uploaded!

WunderBlogs® & News

Nearby

Air Quality

  Air Quality AQ Index Pollutant
Not available.

Snow Depth

Station Depth Elevation

Earthquake Activity

City Distance Mag. Time & Date
Minimum magnitude displayed is 2.5.

Coastal Water Temperatures

Place Temperature

Stations

Nearby Weather Stations

Station Location Temp. Windchill Dew Point Humidity Wind Precip. Elev Updated Type